Time;durP1;ratioP1;P1;durP2;ratioP2;P2;SDS_P1;SDS_P2;PMS_P1;PMS_P2;Temp;Humidity;BMP_temperature;BMP_pressure;BME280_temperature;BME280_humidity;BME280_pressure;Samples;Min_cycle;Max_cycle;Signal;HPM_P1;HPM_P2
2022/09/10 00:01:24;;;;;;;0.40;0.40;;;14.10;99.90;;;;;;5066302;28;20437;-79
2022/09/10 00:03:53;;;;;;;0.30;0.30;;;14.10;99.90;;;;;;5046643;28;20040;-80
2022/09/10 00:06:20;;;;;;;0.30;0.30;;;14.10;99.90;;;;;;5052213;28;20043;-80
2022/09/10 00:08:48;;;;;;;0.40;0.40;;;14.10;99.90;;;;;;5068208;28;20098;-80
2022/09/10 00:11:14;;;;;;;0.30;0.30;;;14.10;99.90;;;;;;5054719;28;20060;-79
2022/09/10 00:13:41;;;;;;;0.30;0.30;;;14.20;99.90;;;;;;5070023;28;20036;-78
2022/09/10 00:16:12;;;;;;;0.30;0.30;;;14.20;99.90;;;;;;5071387;28;20119;-79
2022/09/10 00:18:39;;;;;;;0.30;0.30;;;14.30;99.90;;;;;;5056065;28;20044;-81
2022/09/10 00:21:09;;;;;;;0.30;0.30;;;14.30;99.90;;;;;;5085881;28;20084;-82
2022/09/10 00:23:37;;;;;;;0.60;0.60;;;14.40;99.90;;;;;;5071216;28;20080;-82
2022/09/10 00:26:13;;;;;;;0.50;0.50;;;14.40;99.90;;;;;;5061970;28;20109;-78
2022/09/10 00:28:41;;;;;;;1.60;1.52;;;14.50;99.90;;;;;;5077623;28;20050;-81
2022/09/10 00:31:08;;;;;;;0.57;0.57;;;14.50;99.90;;;;;;5061244;28;20128;-81
2022/09/10 00:33:38;;;;;;;0.30;0.30;;;14.50;99.90;;;;;;5067153;28;20048;-82
2022/09/10 00:36:20;;;;;;;0.40;0.40;;;14.60;99.90;;;;;;5053058;28;20041;-80
2022/09/10 00:38:47;;;;;;;0.38;0.38;;;14.60;99.90;;;;;;5053148;28;20523;-81
2022/09/10 00:41:14;;;;;;;0.60;0.60;;;14.60;99.90;;;;;;5089376;28;20045;-80
2022/09/10 00:44:03;;;;;;;0.30;0.30;;;14.60;99.90;;;;;;5054292;28;20132;-81
2022/09/10 00:46:43;;;;;;;0.17;0.17;;;14.70;99.90;;;;;;5072251;28;20045;-79
2022/09/10 00:49:19;;;;;;;0.13;0.13;;;14.70;99.90;;;;;;5059668;28;20039;-81
2022/09/10 00:51:47;;;;;;;0.28;0.28;;;14.70;99.90;;;;;;5058527;28;20401;-79
2022/09/10 00:54:16;;;;;;;0.90;0.90;;;14.70;99.90;;;;;;5063295;28;20044;-79
2022/09/10 00:56:44;;;;;;;0.60;0.60;;;14.80;99.90;;;;;;5078032;28;20039;-78
2022/09/10 00:59:15;;;;;;;0.38;0.38;;;14.70;99.90;;;;;;5040337;28;20059;-80
2022/09/10 01:01:42;;;;;;;0.32;0.32;;;14.70;99.90;;;;;;5058605;28;20037;-78
2022/09/10 01:04:09;;;;;;;0.30;0.30;;;14.80;99.90;;;;;;5051522;28;20044;-77
2022/09/10 01:06:39;;;;;;;0.30;0.30;;;14.80;99.90;;;;;;5054876;28;20129;-80
2022/09/10 01:09:06;;;;;;;0.50;0.50;;;14.80;99.90;;;;;;5074495;28;20044;-79
2022/09/10 01:11:59;;;;;;;0.40;0.40;;;14.80;99.90;;;;;;5044185;28;20051;-80
2022/09/10 01:14:53;;;;;;;0.30;0.30;;;14.80;99.90;;;;;;5072326;28;20068;-80
2022/09/10 01:17:44;;;;;;;0.80;0.80;;;14.80;99.90;;;;;;5054692;28;20055;-79
2022/09/10 01:20:39;;;;;;;0.50;0.50;;;14.80;99.90;;;;;;5037467;28;20045;-79
2022/09/10 01:23:27;;;;;;;0.40;0.40;;;14.80;99.90;;;;;;5076189;28;20046;-80
2022/09/10 01:26:30;;;;;;;0.30;0.30;;;14.80;99.90;;;;;;5083827;28;20470;-79
2022/09/10 01:29:07;;;;;;;0.30;0.30;;;14.70;99.90;;;;;;5065006;28;20112;-77
2022/09/10 01:31:38;;;;;;;;;;;14.80;99.90;;;;;;5063826;28;20513;-79
2022/09/10 01:34:17;;;;;;;0.40;0.40;;;14.80;99.90;;;;;;5052746;28;20007;-78
2022/09/10 01:36:53;;;;;;;0.20;0.20;;;14.80;99.90;;;;;;5069338;28;20056;-79
2022/09/10 01:39:21;;;;;;;0.30;0.30;;;14.80;99.90;;;;;;5056949;28;20421;-80
2022/09/10 01:41:51;;;;;;;0.30;0.30;;;14.80;99.90;;;;;;5083079;28;20043;-82
2022/09/10 01:44:49;;;;;;;0.30;0.30;;;14.80;99.90;;;;;;5053350;28;20388;-81
2022/09/10 01:47:37;;;;;;;0.30;0.30;;;14.80;99.90;;;;;;5040814;28;20067;-81
2022/09/10 01:50:08;;;;;;;0.30;0.30;;;14.80;99.90;;;;;;5061200;28;20044;-76
2022/09/10 01:52:56;;;;;;;0.30;0.30;;;14.80;99.90;;;;;;5063417;28;20036;-78
2022/09/10 01:56:05;;;;;;;0.38;0.38;;;14.80;99.90;;;;;;5054044;28;20039;-79
2022/09/10 01:58:40;;;;;;;0.30;0.30;;;14.80;99.90;;;;;;5072188;28;20056;-81
2022/09/10 02:01:20;;;;;;;0.30;0.30;;;14.90;99.90;;;;;;5050921;28;20044;-79
2022/09/10 02:03:53;;;;;;;0.20;0.20;;;14.80;99.90;;;;;;5055927;28;20052;-78
2022/09/10 02:06:26;;;;;;;0.73;0.73;;;14.80;99.90;;;;;;5075076;28;20044;-82
2022/09/10 02:08:53;;;;;;;0.30;0.30;;;14.80;99.90;;;;;;5058932;28;20115;-81
2022/09/10 02:11:20;;;;;;;0.40;0.40;;;14.90;99.90;;;;;;5071522;28;20044;-81
2022/09/10 02:13:46;;;;;;;0.20;0.20;;;14.90;99.90;;;;;;5053488;28;20079;-83
2022/09/10 02:16:36;;;;;;;0.30;0.30;;;14.80;99.90;;;;;;5083385;28;20068;-83
2022/09/10 02:19:07;;;;;;;0.30;0.30;;;14.80;99.90;;;;;;5073777;28;20451;-79
2022/09/10 02:21:34;;;;;;;0.32;0.32;;;14.80;99.90;;;;;;5057564;28;20052;-79
2022/09/10 02:24:05;;;;;;;2.40;1.73;;;14.80;99.90;;;;;;5065048;28;20033;-81
2022/09/10 02:26:33;;;;;;;0.63;0.63;;;14.80;99.90;;;;;;5062812;28;20537;-77
2022/09/10 02:29:15;;;;;;;0.43;0.43;;;14.80;99.90;;;;;;5058847;28;20516;-81
2022/09/10 02:31:42;;;;;;;0.22;0.22;;;14.80;99.90;;;;;;5075666;28;20086;-82
2022/09/10 02:34:09;;;;;;;0.40;0.40;;;14.80;99.90;;;;;;5071318;28;20489;-80
2022/09/10 02:36:39;;;;;;;0.40;0.40;;;14.80;99.90;;;;;;5063885;28;20367;-77
2022/09/10 02:39:04;;;;;;;0.40;0.40;;;14.80;99.90;;;;;;5061069;28;21102;-80
2022/09/10 02:41:33;;;;;;;0.20;0.20;;;14.80;99.90;;;;;;5080131;28;20036;-79
2022/09/10 02:44:00;;;;;;;0.32;0.32;;;14.80;99.90;;;;;;5057713;28;20044;-80
2022/09/10 02:46:27;;;;;;;0.88;0.88;;;14.80;99.90;;;;;;5040714;28;20372;-79
2022/09/10 02:48:54;;;;;;;0.22;0.22;;;14.80;99.90;;;;;;5052298;28;20501;-77
2022/09/10 02:51:20;;;;;;;1.15;1.10;;;14.80;99.90;;;;;;5058768;28;20128;-77
2022/09/10 02:53:46;;;;;;;0.45;0.45;;;14.80;99.90;;;;;;5084768;28;20363;-79
2022/09/10 02:56:18;;;;;;;0.40;0.40;;;14.80;99.90;;;;;;5077605;28;20043;-76
2022/09/10 02:58:47;;;;;;;2.35;0.75;;;14.80;99.90;;;;;;5079852;28;20057;-79
2022/09/10 03:01:17;;;;;;;0.30;0.30;;;14.80;99.90;;;;;;5071427;28;20048;-78
2022/09/10 03:03:47;;;;;;;0.50;0.50;;;14.80;99.90;;;;;;5039819;28;20044;-80
2022/09/10 03:06:13;;;;;;;0.30;0.30;;;14.80;99.90;;;;;;5052699;28;20123;-80
2022/09/10 03:08:46;;;;;;;0.25;0.25;;;14.80;99.90;;;;;;5060951;28;20132;-78
2022/09/10 03:11:13;;;;;;;0.30;0.30;;;14.80;99.90;;;;;;5073376;28;20039;-78
2022/09/10 03:13:39;;;;;;;0.50;0.50;;;14.80;99.90;;;;;;5060268;28;20405;-79
2022/09/10 03:16:05;;;;;;;0.80;0.80;;;14.80;99.90;;;;;;5078240;28;20132;-77
2022/09/10 03:18:31;;;;;;;;;;;14.70;99.90;;;;;;5054084;28;20440;-80
2022/09/10 03:21:08;;;;;;;2.47;1.38;;;14.70;99.90;;;;;;5066370;28;19916;-78
2022/09/10 03:23:35;;;;;;;0.40;0.40;;;14.70;99.90;;;;;;5049531;28;20106;-80
2022/09/10 03:26:01;;;;;;;0.30;0.30;;;14.70;99.90;;;;;;5051434;28;20461;-79
2022/09/10 03:28:28;;;;;;;0.50;0.50;;;14.70;99.90;;;;;;5024455;28;20119;-80
2022/09/10 03:30:55;;;;;;;1.38;1.30;;;14.70;99.90;;;;;;5068622;28;20048;-77
2022/09/10 03:33:22;;;;;;;1.85;1.10;;;14.70;99.90;;;;;;5069019;28;21292;-78
2022/09/10 03:35:48;;;;;;;2.35;1.67;;;14.70;99.90;;;;;;5052741;28;20086;-79
2022/09/10 03:38:14;;;;;;;0.32;0.32;;;14.70;99.90;;;;;;5046769;28;20510;-79
2022/09/10 03:40:40;;;;;;;0.85;0.85;;;14.70;99.90;;;;;;5049395;28;20044;-79
2022/09/10 03:43:12;;;;;;;0.60;0.60;;;14.70;99.90;;;;;;5064872;28;20078;-77
2022/09/10 03:45:38;;;;;;;0.50;0.50;;;14.70;99.90;;;;;;5047964;28;20045;-78
2022/09/10 03:48:05;;;;;;;2.92;2.15;;;14.70;99.90;;;;;;5060453;28;20129;-80
2022/09/10 03:50:31;;;;;;;0.30;0.30;;;14.70;99.90;;;;;;5051683;28;20044;-78
2022/09/10 03:53:02;;;;;;;2.13;0.95;;;14.80;99.90;;;;;;5080549;28;20520;-80
2022/09/10 03:55:29;;;;;;;1.23;1.23;;;14.80;99.90;;;;;;5061031;28;20076;-81
2022/09/10 03:57:56;;;;;;;0.77;0.77;;;14.80;99.90;;;;;;5073332;28;20493;-79
2022/09/10 04:00:34;;;;;;;0.60;0.60;;;14.80;99.90;;;;;;5054279;28;20152;-79
2022/09/10 04:03:00;;;;;;;0.35;0.32;;;14.80;99.90;;;;;;5049236;28;20041;-77
2022/09/10 04:05:28;;;;;;;0.50;0.50;;;14.80;99.90;;;;;;5057564;28;20119;-78
2022/09/10 04:07:57;;;;;;;0.40;0.40;;;14.80;99.90;;;;;;5073002;28;20068;-77
2022/09/10 04:10:26;;;;;;;0.55;0.45;;;14.80;99.90;;;;;;5059952;28;20087;-80
2022/09/10 04:12:52;;;;;;;;;;;14.80;99.90;;;;;;5069982;28;20051;-79
2022/09/10 04:15:22;;;;;;;0.30;0.30;;;14.80;99.90;;;;;;5068994;28;19920;-81
2022/09/10 04:17:53;;;;;;;0.38;0.38;;;14.80;99.90;;;;;;5053556;28;20147;-80
2022/09/10 04:20:24;;;;;;;0.70;0.70;;;14.80;99.90;;;;;;5061253;28;20371;-79
2022/09/10 04:22:50;;;;;;;0.30;0.30;;;14.80;99.90;;;;;;5091020;28;20052;-80
2022/09/10 04:25:17;;;;;;;0.20;0.20;;;14.80;99.90;;;;;;5071394;28;20124;-81
2022/09/10 04:27:55;;;;;;;0.32;0.32;;;14.70;99.90;;;;;;5070664;28;20106;-78
2022/09/10 04:30:22;;;;;;;0.57;0.57;;;14.80;99.90;;;;;;5065212;28;20487;-80
2022/09/10 04:32:49;;;;;;;0.52;0.52;;;14.80;99.90;;;;;;5072093;28;20041;-80
2022/09/10 04:35:14;;;;;;;1.00;0.98;;;14.80;99.90;;;;;;5022767;28;20045;-79
2022/09/10 04:37:41;;;;;;;0.30;0.30;;;14.80;99.90;;;;;;5031909;28;20064;-79
2022/09/10 04:40:09;;;;;;;0.43;0.43;;;14.80;99.90;;;;;;5060736;28;20052;-80
2022/09/10 04:42:39;;;;;;;0.40;0.40;;;14.80;99.90;;;;;;5066552;28;20048;-79
2022/09/10 04:45:07;;;;;;;0.75;0.75;;;14.80;99.90;;;;;;5047424;28;20131;-78
2022/09/10 04:47:34;;;;;;;0.40;0.40;;;14.80;99.90;;;;;;5073517;28;20040;-78
2022/09/10 04:50:02;;;;;;;0.30;0.30;;;14.80;99.90;;;;;;5051950;28;20055;-77
2022/09/10 04:52:47;;;;;;;0.30;0.30;;;14.80;99.90;;;;;;5046882;28;20037;-81
2022/09/10 04:55:14;;;;;;;0.65;0.65;;;14.80;99.90;;;;;;5084420;28;20578;-81
2022/09/10 04:57:41;;;;;;;1.38;1.27;;;14.80;99.90;;;;;;5065008;28;20051;-78
2022/09/10 05:00:07;;;;;;;0.30;0.30;;;14.90;99.90;;;;;;5056473;28;20491;-78
2022/09/10 05:02:37;;;;;;;0.30;0.30;;;14.90;99.90;;;;;;5059499;28;20040;-80
2022/09/10 05:05:03;;;;;;;0.28;0.28;;;14.90;99.90;;;;;;5029611;28;20041;-81
2022/09/10 05:07:29;;;;;;;0.73;0.57;;;14.90;99.90;;;;;;5055462;28;20444;-79
2022/09/10 05:10:01;;;;;;;0.30;0.30;;;14.90;99.90;;;;;;5034131;28;20062;-77
2022/09/10 05:12:27;;;;;;;0.25;0.25;;;14.90;99.90;;;;;;5072040;28;20608;-79
2022/09/10 05:14:53;;;;;;;;;;;14.90;99.90;;;;;;5072269;28;20044;-81
2022/09/10 05:17:19;;;;;;;0.20;0.20;;;14.90;99.90;;;;;;5046687;28;20389;-79
2022/09/10 05:19:46;;;;;;;0.30;0.30;;;14.90;99.90;;;;;;5064912;28;20049;-81
2022/09/10 05:22:12;;;;;;;0.40;0.40;;;14.90;99.90;;;;;;5049530;28;20056;-78
2022/09/10 05:24:46;;;;;;;0.47;0.47;;;14.90;99.90;;;;;;5076490;28;20039;-80
2022/09/10 05:27:12;;;;;;;0.30;0.30;;;14.90;99.90;;;;;;5092711;28;20036;-81
2022/09/10 05:29:38;;;;;;;0.88;0.88;;;14.90;99.90;;;;;;5056137;28;20524;-76
2022/09/10 05:32:05;;;;;;;0.65;0.47;;;15.00;99.90;;;;;;5083657;28;20078;-77
2022/09/10 05:34:32;;;;;;;0.40;0.40;;;15.00;99.90;;;;;;5084766;28;20056;-75
2022/09/10 05:36:58;;;;;;;0.77;0.77;;;15.00;99.90;;;;;;5069046;28;20040;-76
2022/09/10 05:39:24;;;;;;;0.70;0.70;;;15.00;99.90;;;;;;5071232;28;20098;-76
2022/09/10 05:41:51;;;;;;;;;;;15.00;99.90;;;;;;5072838;28;20052;-77
2022/09/10 05:44:17;;;;;;;0.50;0.50;;;15.00;99.90;;;;;;5048926;28;20274;-76
2022/09/10 05:46:43;;;;;;;0.40;0.40;;;15.00;99.90;;;;;;5089914;28;20097;-75
2022/09/10 05:49:11;;;;;;;0.43;0.43;;;15.10;99.90;;;;;;5059297;28;20053;-76
2022/09/10 05:51:37;;;;;;;0.60;0.60;;;15.10;99.90;;;;;;5054289;28;20078;-77
2022/09/10 05:54:02;;;;;;;0.75;0.40;;;15.10;99.90;;;;;;5068372;28;20036;-78
2022/09/10 05:56:30;;;;;;;0.40;0.40;;;15.10;99.90;;;;;;5055986;28;20036;-79
2022/09/10 05:58:57;;;;;;;0.47;0.47;;;15.10;99.90;;;;;;5070849;28;20053;-80
2022/09/10 06:01:22;;;;;;;0.40;0.40;;;15.20;99.90;;;;;;5069160;28;20097;-80
2022/09/10 06:03:49;;;;;;;;;;;15.20;99.90;;;;;;5068454;28;20281;-78
2022/09/10 06:06:16;;;;;;;1.40;1.40;;;15.20;99.90;;;;;;5067143;28;19927;-77
2022/09/10 06:08:42;;;;;;;;;;;15.20;99.90;;;;;;5070376;28;20056;-76
2022/09/10 06:11:16;;;;;;;0.60;0.60;;;15.20;99.90;;;;;;5072583;28;19922;-78
2022/09/10 06:13:43;;;;;;;0.20;0.20;;;15.30;99.90;;;;;;5064440;28;20048;-79
2022/09/10 06:16:09;;;;;;;0.22;0.22;;;15.30;99.90;;;;;;5066888;28;20075;-77
2022/09/10 06:18:35;;;;;;;0.30;0.30;;;15.30;99.90;;;;;;5062697;28;20079;-74
2022/09/10 06:21:21;;;;;;;0.35;0.35;;;15.40;99.90;;;;;;5069577;28;20036;-75
2022/09/10 06:23:55;;;;;;;0.20;0.20;;;15.50;99.90;;;;;;5069786;28;20071;-77
2022/09/10 06:26:21;;;;;;;0.20;0.20;;;15.50;99.90;;;;;;5069185;28;20072;-79
2022/09/10 06:28:48;;;;;;;0.20;0.20;;;15.60;99.90;;;;;;5063890;28;20469;-75
2022/09/10 06:31:19;;;;;;;0.17;0.17;;;15.70;99.90;;;;;;5066985;28;20048;-82
2022/09/10 06:33:47;;;;;;;0.30;0.30;;;15.80;99.90;;;;;;5065972;28;20048;-81
2022/09/10 06:36:14;;;;;;;0.20;0.20;;;15.90;99.90;;;;;;5056105;28;20076;-75
2022/09/10 06:38:40;;;;;;;0.30;0.30;;;15.90;99.90;;;;;;5057898;28;20079;-78
2022/09/10 06:41:10;;;;;;;0.20;0.20;;;16.00;99.90;;;;;;5068983;28;20044;-77
2022/09/10 06:43:37;;;;;;;0.32;0.30;;;16.00;99.90;;;;;;5055691;28;20076;-80
2022/09/10 06:46:12;;;;;;;11.15;1.15;;;16.10;99.90;;;;;;5078397;28;20043;-82
2022/09/10 06:48:39;;;;;;;0.28;0.28;;;16.10;99.90;;;;;;5037015;28;20040;-77
2022/09/10 06:51:07;;;;;;;0.60;0.60;;;16.10;99.90;;;;;;5063607;28;20283;-80
2022/09/10 06:53:35;;;;;;;0.25;0.25;;;16.10;99.90;;;;;;5037957;28;20054;-76
2022/09/10 06:56:01;;;;;;;0.20;0.20;;;16.20;99.90;;;;;;5071218;28;20032;-78
2022/09/10 06:58:30;;;;;;;0.52;0.52;;;16.20;99.90;;;;;;5075346;28;20083;-82
2022/09/10 07:00:56;;;;;;;0.22;0.22;;;16.10;99.90;;;;;;5070938;28;20068;-78
2022/09/10 07:03:22;;;;;;;0.20;0.20;;;16.10;99.90;;;;;;5076339;28;20094;-75
2022/09/10 07:05:52;;;;;;;0.20;0.20;;;16.10;99.90;;;;;;5069639;28;20052;-78
2022/09/10 07:08:21;;;;;;;0.20;0.20;;;16.10;99.90;;;;;;5071313;28;20512;-74
2022/09/10 07:10:47;;;;;;;0.57;0.57;;;16.10;99.90;;;;;;5069854;28;20114;-77
2022/09/10 07:13:13;;;;;;;1.13;1.13;;;16.10;99.90;;;;;;5086827;28;20044;-82
2022/09/10 07:15:45;;;;;;;0.60;0.60;;;16.00;99.90;;;;;;5055209;28;20095;-76
2022/09/10 07:18:13;;;;;;;0.63;0.63;;;16.00;99.90;;;;;;5046941;28;20503;-77
2022/09/10 07:20:43;;;;;;;1.08;1.05;;;16.10;99.90;;;;;;5059620;28;20048;-76
2022/09/10 07:23:10;;;;;;;0.63;0.63;;;16.00;99.90;;;;;;5071411;28;20037;-77
2022/09/10 07:25:36;;;;;;;0.82;0.82;;;16.10;99.90;;;;;;5068303;28;20486;-76
2022/09/10 07:28:02;;;;;;;;;;;16.10;99.90;;;;;;5070037;28;20041;-76
2022/09/10 07:30:29;;;;;;;0.30;0.30;;;16.10;99.90;;;;;;5067931;28;19917;-79
2022/09/10 07:32:55;;;;;;;0.30;0.30;;;16.20;99.90;;;;;;5067796;28;20087;-77
2022/09/10 07:35:21;;;;;;;0.30;0.30;;;16.20;99.90;;;;;;5068856;28;20047;-75
2022/09/10 07:37:47;;;;;;;;;;;16.20;99.90;;;;;;5052863;28;20048;-77
2022/09/10 07:40:14;;;;;;;0.20;0.20;;;16.30;99.90;;;;;;5077864;28;19916;-80
2022/09/10 07:42:42;;;;;;;0.30;0.30;;;16.40;99.90;;;;;;5088079;28;20076;-79
2022/09/10 07:45:12;;;;;;;0.82;0.82;;;16.40;99.90;;;;;;5044741;28;20041;-78
2022/09/10 07:47:39;;;;;;;0.30;0.30;;;16.40;99.90;;;;;;5093175;28;20040;-75
2022/09/10 07:50:06;;;;;;;0.30;0.30;;;16.40;99.90;;;;;;5080417;28;20045;-75
2022/09/10 07:52:32;;;;;;;0.20;0.20;;;16.40;99.90;;;;;;5067161;28;20516;-78
2022/09/10 07:54:59;;;;;;;0.40;0.40;;;16.40;99.90;;;;;;5093099;28;20076;-72
2022/09/10 07:57:25;;;;;;;0.30;0.30;;;16.40;99.90;;;;;;5060892;28;20055;-79
2022/09/10 07:59:59;;;;;;;0.30;0.30;;;16.50;99.90;;;;;;5057278;28;20055;-79
2022/09/10 08:02:25;;;;;;;0.30;0.30;;;16.50;99.90;;;;;;5065292;28;20076;-79
2022/09/10 08:04:51;;;;;;;0.20;0.20;;;16.60;99.90;;;;;;5053252;28;20517;-77
2022/09/10 08:07:23;;;;;;;0.30;0.30;;;16.60;99.90;;;;;;5080541;28;20491;-76
2022/09/10 08:09:51;;;;;;;0.68;0.68;;;16.60;99.90;;;;;;5086717;28;20097;-80
2022/09/10 08:12:17;;;;;;;0.70;0.63;;;16.50;99.90;;;;;;5086281;28;20040;-77
2022/09/10 08:14:43;;;;;;;;;;;16.60;99.90;;;;;;5094367;28;20048;-79
2022/09/10 08:17:08;;;;;;;0.40;0.40;;;16.50;99.90;;;;;;5083522;28;19963;-78
2022/09/10 08:19:35;;;;;;;;;;;16.60;99.90;;;;;;5084047;28;20040;-76
2022/09/10 08:22:02;;;;;;;0.30;0.30;;;16.70;99.90;;;;;;5061738;28;19932;-79
2022/09/10 08:24:28;;;;;;;0.30;0.30;;;16.70;99.90;;;;;;5053309;28;20120;-78
2022/09/10 08:26:53;;;;;;;;;;;16.70;99.90;;;;;;5072519;28;20127;-78
2022/09/10 08:29:19;;;;;;;0.30;0.30;;;16.80;99.90;;;;;;5093701;28;19920;-77
2022/09/10 08:31:46;;;;;;;;;;;16.80;99.90;;;;;;5089372;28;20045;-79
2022/09/10 08:34:12;;;;;;;0.75;0.75;;;16.80;99.90;;;;;;5084077;28;19916;-79
2022/09/10 08:36:38;;;;;;;0.35;0.35;;;16.80;99.90;;;;;;5062205;28;20049;-77
2022/09/10 08:39:04;;;;;;;;;;;16.80;99.90;;;;;;5063682;28;20049;-76
2022/09/10 08:41:37;;;;;;;0.28;0.28;;;16.90;99.90;;;;;;5077835;28;19927;-77
2022/09/10 08:44:08;;;;;;;0.20;0.20;;;16.90;99.90;;;;;;5079968;28;20036;-79
2022/09/10 08:47:10;;;;;;;0.20;0.20;;;16.90;99.90;;;;;;5053198;28;20507;-76
2022/09/10 08:49:43;;;;;;;0.30;0.30;;;16.90;99.90;;;;;;5076434;28;20498;-75
2022/09/10 08:52:28;;;;;;;0.20;0.20;;;16.90;99.90;;;;;;5060974;28;20037;-74
2022/09/10 08:55:22;;;;;;;0.20;0.20;;;16.80;99.90;;;;;;5071036;28;20050;-78
2022/09/10 08:57:59;;;;;;;0.43;0.28;;;16.90;99.90;;;;;;5067291;28;20077;-78
2022/09/10 09:00:36;;;;;;;0.30;0.30;;;16.90;99.90;;;;;;5064378;28;20071;-78
2022/09/10 09:03:23;;;;;;;0.38;0.38;;;17.00;99.90;;;;;;5059366;28;20094;-77
2022/09/10 09:05:54;;;;;;;0.22;0.22;;;17.10;99.90;;;;;;5051847;28;20421;-81
2022/09/10 09:08:47;;;;;;;0.30;0.30;;;17.30;99.90;;;;;;5072329;28;20046;-77
2022/09/10 09:11:30;;;;;;;0.30;0.30;;;17.40;99.90;;;;;;5087442;28;20033;-78
2022/09/10 09:14:28;;;;;;;0.30;0.30;;;17.50;99.90;;;;;;5055907;28;20033;-74
2022/09/10 09:16:58;;;;;;;0.55;0.55;;;17.60;99.90;;;;;;5084540;28;20040;-79
2022/09/10 09:19:34;;;;;;;0.40;0.40;;;17.50;99.90;;;;;;5085134;28;20044;-76
2022/09/10 09:22:16;;;;;;;0.20;0.20;;;17.60;99.90;;;;;;5061079;28;20047;-77
2022/09/10 09:24:57;;;;;;;0.30;0.30;;;17.70;99.90;;;;;;5056900;28;20051;-81
2022/09/10 09:27:28;;;;;;;0.20;0.20;;;17.70;99.90;;;;;;5092372;28;20131;-77
2022/09/10 09:30:12;;;;;;;0.30;0.30;;;17.70;99.90;;;;;;5082999;28;20371;-79
2022/09/10 09:32:41;;;;;;;0.30;0.30;;;17.80;99.90;;;;;;5091284;28;20047;-79
2022/09/10 09:35:20;;;;;;;1.48;0.98;;;17.80;99.90;;;;;;5063157;28;20127;-76
2022/09/10 09:37:49;;;;;;;0.30;0.30;;;17.80;99.90;;;;;;5069381;28;20398;-78
2022/09/10 09:40:45;;;;;;;1.30;1.25;;;17.80;99.90;;;;;;5058534;28;20390;-76
2022/09/10 09:43:49;;;;;;;0.27;0.27;;;17.70;99.90;;;;;;5070211;28;20036;-78
2022/09/10 09:46:17;;;;;;;0.20;0.20;;;17.80;99.90;;;;;;5080669;28;20286;-75
2022/09/10 09:48:45;;;;;;;0.40;0.40;;;17.70;99.90;;;;;;5080016;28;20433;-76
2022/09/10 09:51:19;;;;;;;0.40;0.40;;;17.70;99.90;;;;;;5083256;28;20086;-76
2022/09/10 09:53:50;;;;;;;0.55;0.55;;;17.70;99.90;;;;;;5085304;28;20295;-75
2022/09/10 09:56:26;;;;;;;0.22;0.22;;;17.70;99.90;;;;;;5060793;28;20047;-78
2022/09/10 09:58:52;;;;;;;;;;;17.80;99.90;;;;;;5064114;28;20057;-75
2022/09/10 10:01:23;;;;;;;0.30;0.30;;;17.90;99.90;;;;;;5052376;28;19916;-78
2022/09/10 10:04:00;;;;;;;2.45;0.98;;;17.90;99.90;;;;;;5085720;28;20415;-81
2022/09/10 10:06:46;;;;;;;0.30;0.30;;;18.00;99.90;;;;;;5078328;28;20389;-78
2022/09/10 10:09:26;;;;;;;0.20;0.20;;;18.00;99.90;;;;;;5075624;28;20040;-76
2022/09/10 10:12:03;;;;;;;0.50;0.50;;;18.20;99.90;;;;;;5070387;28;20043;-79
2022/09/10 10:14:36;;;;;;;0.20;0.20;;;18.30;99.90;;;;;;5078184;28;20052;-80
2022/09/10 10:17:42;;;;;;;0.30;0.30;;;18.50;99.90;;;;;;5065688;28;20048;-78
2022/09/10 10:20:34;;;;;;;0.75;0.30;;;18.60;99.90;;;;;;5064642;28;20144;-78
2022/09/10 10:23:36;;;;;;;0.30;0.30;;;18.70;99.90;;;;;;5064874;28;20119;-76
2022/09/10 10:26:39;;;;;;;0.25;0.25;;;18.90;99.90;;;;;;5065089;28;20056;-77
2022/09/10 10:29:17;;;;;;;0.30;0.30;;;19.00;99.90;;;;;;5084014;28;20082;-80
2022/09/10 10:31:46;;;;;;;0.40;0.40;;;19.00;99.90;;;;;;5041942;28;20075;-73
2022/09/10 10:34:31;;;;;;;0.20;0.20;;;18.90;99.90;;;;;;5059172;28;20092;-76
2022/09/10 10:37:22;;;;;;;0.30;0.30;;;18.90;99.90;;;;;;5077452;28;20041;-79
2022/09/10 10:40:06;;;;;;;0.50;0.50;;;18.90;99.90;;;;;;5061013;28;20461;-77
2022/09/10 10:43:12;;;;;;;0.35;0.35;;;18.90;99.90;;;;;;5085809;28;20044;-79
2022/09/10 10:45:58;;;;;;;0.30;0.30;;;19.00;99.90;;;;;;5050075;28;20502;-78
2022/09/10 10:49:18;;;;;;;0.20;0.20;;;19.20;99.90;;;;;;5061727;28;20044;-76
2022/09/10 10:51:52;;;;;;;0.40;0.40;;;19.30;99.90;;;;;;5068983;28;20062;-78
2022/09/10 10:54:36;;;;;;;0.60;0.60;;;19.20;99.90;;;;;;5061064;28;20115;-75
2022/09/10 10:57:30;;;;;;;0.30;0.30;;;19.20;99.90;;;;;;5058201;28;20029;-78
2022/09/10 11:00:11;;;;;;;0.30;0.30;;;19.20;99.90;;;;;;5053009;28;20126;-78
2022/09/10 11:03:14;;;;;;;0.30;0.30;;;19.20;99.90;;;;;;5052831;28;20498;-79
2022/09/10 11:06:13;;;;;;;0.30;0.30;;;19.40;99.90;;;;;;5058296;28;20044;-76
2022/09/10 11:08:49;;;;;;;0.30;0.30;;;19.60;99.90;;;;;;5053045;28;20053;-77
2022/09/10 11:11:17;;;;;;;0.32;0.32;;;19.80;99.90;;;;;;5062975;28;20040;-77
2022/09/10 11:14:00;;;;;;;0.30;0.30;;;20.00;99.90;;;;;;5082724;28;20111;-77
2022/09/10 11:16:30;;;;;;;0.57;0.57;;;20.10;99.90;;;;;;5080972;28;20044;-79
2022/09/10 11:19:39;;;;;;;0.30;0.30;;;20.30;99.90;;;;;;5059796;28;20044;-77
2022/09/10 11:22:18;;;;;;;0.30;0.30;;;20.40;99.90;;;;;;5044532;28;20045;-74
2022/09/10 11:24:57;;;;;;;0.40;0.40;;;20.50;99.90;;;;;;5055518;28;20032;-73
2022/09/10 11:27:29;;;;;;;0.40;0.40;;;20.60;99.90;;;;;;5063935;28;20490;-76
2022/09/10 11:30:02;;;;;;;0.57;0.57;;;20.70;99.90;;;;;;5090843;28;20074;-76
2022/09/10 11:32:43;;;;;;;0.30;0.30;;;20.80;99.90;;;;;;5087427;28;20078;-77
2022/09/10 11:35:33;;;;;;;0.25;0.25;;;20.80;99.90;;;;;;5079748;28;21120;-75
2022/09/10 11:38:22;;;;;;;0.50;0.50;;;20.90;99.90;;;;;;5091191;28;20105;-74
2022/09/10 11:40:59;;;;;;;0.30;0.30;;;21.00;99.90;;;;;;5054500;28;20052;-76
2022/09/10 11:43:45;;;;;;;0.30;0.30;;;21.20;99.90;;;;;;5066834;28;20041;-74
2022/09/10 11:46:15;;;;;;;0.30;0.30;;;21.20;99.90;;;;;;5074338;28;20048;-78
2022/09/10 11:48:48;;;;;;;0.30;0.30;;;21.40;99.90;;;;;;5082763;28;20058;-75
2022/09/10 11:51:30;;;;;;;0.30;0.30;;;21.30;99.90;;;;;;5070603;28;20115;-79
2022/09/10 11:53:57;;;;;;;0.30;0.30;;;;;;;;;;5056855;28;20051;-76
2022/09/10 11:56:49;;;;;;;0.30;0.30;;;21.50;99.90;;;;;;5077783;28;20063;-74
2022/09/10 11:59:40;;;;;;;0.20;0.20;;;21.80;99.90;;;;;;5075609;28;20533;-75
2022/09/10 12:02:39;;;;;;;0.20;0.20;;;22.20;99.90;;;;;;5060815;28;20130;-78
2022/09/10 12:05:44;;;;;;;0.20;0.20;;;22.20;99.90;;;;;;5059364;28;20041;-77
2022/09/10 12:08:10;;;;;;;0.30;0.30;;;22.60;99.90;;;;;;5069469;28;20491;-77
2022/09/10 12:10:58;;;;;;;0.30;0.30;;;22.60;99.90;;;;;;5085276;28;20045;-76
2022/09/10 12:13:24;;;;;;;0.38;0.38;;;22.60;99.90;;;;;;5065631;28;20057;-78
2022/09/10 12:15:54;;;;;;;0.38;0.38;;;22.70;99.90;;;;;;5060170;28;20452;-77
2022/09/10 12:18:27;;;;;;;0.47;0.47;;;23.10;99.90;;;;;;5089352;28;20093;-76
2022/09/10 12:20:56;;;;;;;0.40;0.40;;;23.00;99.90;;;;;;5076900;28;20044;-74
2022/09/10 12:23:32;;;;;;;0.75;0.73;;;23.00;99.90;;;;;;5069104;28;20371;-75
2022/09/10 12:26:24;;;;;;;0.40;0.40;;;23.00;99.90;;;;;;5072220;28;20093;-76
2022/09/10 12:28:50;;;;;;;0.65;0.55;;;22.90;99.90;;;;;;5062146;28;20064;-77
2022/09/10 12:31:18;;;;;;;0.30;0.30;;;23.00;99.90;;;;;;5086173;28;20040;-75
2022/09/10 12:33:44;;;;;;;0.40;0.40;;;23.40;99.90;;;;;;5084418;28;20518;-75
2022/09/10 12:36:12;;;;;;;0.60;0.60;;;23.40;99.90;;;;;;5075032;28;20048;-79
2022/09/10 12:39:02;;;;;;;0.20;0.20;;;23.50;99.90;;;;;;5039304;28;20059;-76
2022/09/10 12:41:28;;;;;;;0.50;0.50;;;23.80;99.90;;;;;;5063118;28;20036;-78
2022/09/10 12:43:57;;;;;;;0.20;0.20;;;24.00;99.90;;;;;;5072672;28;20044;-76
2022/09/10 12:46:24;;;;;;;0.28;0.28;;;24.20;99.90;;;;;;5053033;28;20443;-80
2022/09/10 12:48:54;;;;;;;0.43;0.43;;;24.20;99.90;;;;;;5071665;28;20048;-75
2022/09/10 12:51:25;;;;;;;0.25;0.25;;;24.20;99.90;;;;;;5072082;28;20049;-77
2022/09/10 12:54:03;;;;;;;0.50;0.50;;;24.10;99.90;;;;;;5061922;28;20092;-77
2022/09/10 12:56:49;;;;;;;0.45;0.45;;;24.00;99.90;;;;;;5079689;28;20513;-78
2022/09/10 12:59:18;;;;;;;;;;;23.80;99.90;;;;;;5065049;28;20055;-77
2022/09/10 13:01:52;;;;;;;0.20;0.20;;;23.20;99.90;;;;;;5061954;28;19932;-77
2022/09/10 13:04:28;;;;;;;0.52;0.52;;;22.80;99.90;;;;;;5081829;28;20050;-80
2022/09/10 13:07:18;;;;;;;0.30;0.30;;;22.50;99.90;;;;;;5071491;28;20148;-78
2022/09/10 13:09:54;;;;;;;0.30;0.30;;;22.10;99.90;;;;;;5084497;28;20610;-76
2022/09/10 13:12:23;;;;;;;0.30;0.30;;;21.70;99.90;;;;;;5064693;28;20072;-77
2022/09/10 13:14:52;;;;;;;0.60;0.60;;;21.60;99.90;;;;;;5070358;28;20398;-75
2022/09/10 13:17:47;;;;;;;0.20;0.20;;;21.50;99.90;;;;;;5082626;28;20057;-76
2022/09/10 13:20:19;;;;;;;0.30;0.30;;;21.70;99.90;;;;;;5091402;28;20062;-79
2022/09/10 13:22:56;;;;;;;0.38;0.38;;;22.00;99.90;;;;;;5076385;28;20119;-78